sensor_id;sensor_type;location;lat;lon;timestamp;P1;durP1;ratioP1;P2;durP2;ratioP2
9320;SDS011;4699;41.950;12.514;2022-08-16T08:00:19;2.45;;;1.40;;
9320;SDS011;4699;41.950;12.514;2022-08-16T08:02:46;3.40;;;2.05;;
9320;SDS011;4699;41.950;12.514;2022-08-16T08:05:14;3.08;;;1.63;;
9320;SDS011;4699;41.950;12.514;2022-08-16T08:07:42;5.25;;;1.58;;
9320;SDS011;4699;41.950;12.514;2022-08-16T08:10:09;2.92;;;1.83;;
9320;SDS011;4699;41.950;12.514;2022-08-16T08:12:36;1.92;;;1.35;;
9320;SDS011;4699;41.950;12.514;2022-08-16T08:15:05;1.58;;;1.45;;
9320;SDS011;4699;41.950;12.514;2022-08-16T08:17:34;2.97;;;1.15;;
9320;SDS011;4699;41.950;12.514;2022-08-16T08:20:04;2.90;;;1.70;;
9320;SDS011;4699;41.950;12.514;2022-08-16T08:22:32;3.63;;;1.75;;
9320;SDS011;4699;41.950;12.514;2022-08-16T08:24:59;2.28;;;1.55;;
9320;SDS011;4699;41.950;12.514;2022-08-16T08:27:27;2.13;;;1.40;;
9320;SDS011;4699;41.950;12.514;2022-08-16T08:29:54;4.30;;;1.73;;
9320;SDS011;4699;41.950;12.514;2022-08-16T08:32:22;2.67;;;1.77;;
9320;SDS011;4699;41.950;12.514;2022-08-16T08:34:53;2.72;;;1.60;;
9320;SDS011;4699;41.950;12.514;2022-08-16T08:37:20;1.90;;;1.50;;
9320;SDS011;4699;41.950;12.514;2022-08-16T08:39:47;4.63;;;1.50;;
9320;SDS011;4699;41.950;12.514;2022-08-16T08:42:15;2.83;;;1.50;;
9320;SDS011;4699;41.950;12.514;2022-08-16T08:44:42;6.13;;;1.75;;
9320;SDS011;4699;41.950;12.514;2022-08-16T08:47:09;2.35;;;1.40;;
9320;SDS011;4699;41.950;12.514;2022-08-16T08:49:36;3.10;;;1.55;;
9320;SDS011;4699;41.950;12.514;2022-08-16T08:52:05;4.38;;;1.58;;
9320;SDS011;4699;41.950;12.514;2022-08-16T08:54:32;4.18;;;1.88;;
9320;SDS011;4699;41.950;12.514;2022-08-16T08:57:00;4.72;;;1.40;;
9320;SDS011;4699;41.950;12.514;2022-08-16T08:59:27;3.58;;;1.60;;
9320;SDS011;4699;41.950;12.514;2022-08-16T09:01:55;2.25;;;1.52;;
9320;SDS011;4699;41.950;12.514;2022-08-16T09:04:23;5.38;;;1.90;;
9320;SDS011;4699;41.950;12.514;2022-08-16T09:06:50;3.05;;;1.52;;
9320;SDS011;4699;41.950;12.514;2022-08-16T09:09:19;8.82;;;2.03;;
9320;SDS011;4699;41.950;12.514;2022-08-16T09:11:47;6.72;;;1.80;;
9320;SDS011;4699;41.950;12.514;2022-08-16T09:14:14;3.33;;;1.50;;
9320;SDS011;4699;41.950;12.514;2022-08-16T09:16:41;2.55;;;1.75;;
9320;SDS011;4699;41.950;12.514;2022-08-16T09:19:09;4.47;;;1.73;;
9320;SDS011;4699;41.950;12.514;2022-08-16T09:21:36;2.53;;;1.50;;
9320;SDS011;4699;41.950;12.514;2022-08-16T09:24:03;4.97;;;1.60;;
9320;SDS011;4699;41.950;12.514;2022-08-16T09:26:32;3.63;;;1.50;;
9320;SDS011;4699;41.950;12.514;2022-08-16T09:28:59;12.07;;;2.30;;
9320;SDS011;4699;41.950;12.514;2022-08-16T09:31:27;6.63;;;1.83;;
9320;SDS011;4699;41.950;12.514;2022-08-16T09:33:54;7.43;;;1.85;;
9320;SDS011;4699;41.950;12.514;2022-08-16T09:36:21;3.05;;;1.77;;
9320;SDS011;4699;41.950;12.514;2022-08-16T09:38:48;3.55;;;2.03;;
9320;SDS011;4699;41.950;12.514;2022-08-16T09:41:16;4.20;;;1.48;;
9320;SDS011;4699;41.950;12.514;2022-08-16T09:43:44;6.72;;;1.65;;
9320;SDS011;4699;41.950;12.514;2022-08-16T09:46:11;1.70;;;1.60;;
9320;SDS011;4699;41.950;12.514;2022-08-16T09:48:39;3.65;;;1.70;;
9320;SDS011;4699;41.950;12.514;2022-08-16T09:51:07;5.10;;;1.50;;
9320;SDS011;4699;41.950;12.514;2022-08-16T09:53:35;4.75;;;1.90;;
9320;SDS011;4699;41.950;12.514;2022-08-16T09:56:03;2.75;;;1.80;;
9320;SDS011;4699;41.950;12.514;2022-08-16T09:58:31;4.35;;;1.55;;
9320;SDS011;4699;41.950;12.514;2022-08-16T10:00:59;3.10;;;1.52;;
9320;SDS011;4699;41.950;12.514;2022-08-16T10:03:27;7.95;;;1.88;;
9320;SDS011;4699;41.950;12.514;2022-08-16T10:05:54;4.57;;;1.73;;
9320;SDS011;4699;41.950;12.514;2022-08-16T10:08:21;6.03;;;1.60;;
9320;SDS011;4699;41.950;12.514;2022-08-16T10:10:48;8.32;;;1.90;;
9320;SDS011;4699;41.950;12.514;2022-08-16T10:13:29;4.45;;;1.85;;
9320;SDS011;4699;41.950;12.514;2022-08-16T10:15:59;4.45;;;1.95;;
9320;SDS011;4699;41.950;12.514;2022-08-16T10:18:27;6.82;;;2.45;;
9320;SDS011;4699;41.950;12.514;2022-08-16T10:20:55;11.85;;;2.83;;
9320;SDS011;4699;41.950;12.514;2022-08-16T10:23:23;8.35;;;2.40;;
9320;SDS011;4699;41.950;12.514;2022-08-16T10:25:51;10.70;;;2.10;;
9320;SDS011;4699;41.950;12.514;2022-08-16T10:28:18;6.07;;;2.03;;
9320;SDS011;4699;41.950;12.514;2022-08-16T10:30:46;6.70;;;2.28;;
9320;SDS011;4699;41.950;12.514;2022-08-16T10:33:14;4.22;;;1.88;;
9320;SDS011;4699;41.950;12.514;2022-08-16T10:35:42;4.88;;;2.25;;
9320;SDS011;4699;41.950;12.514;2022-08-16T10:38:10;8.75;;;2.67;;
9320;SDS011;4699;41.950;12.514;2022-08-16T10:40:38;10.30;;;2.58;;
9320;SDS011;4699;41.950;12.514;2022-08-16T10:43:05;6.28;;;1.95;;
9320;SDS011;4699;41.950;12.514;2022-08-16T10:45:32;5.05;;;2.10;;
9320;SDS011;4699;41.950;12.514;2022-08-16T10:47:59;10.10;;;2.38;;
9320;SDS011;4699;41.950;12.514;2022-08-16T10:50:28;3.88;;;2.03;;
9320;SDS011;4699;41.950;12.514;2022-08-16T10:52:56;8.68;;;2.78;;
9320;SDS011;4699;41.950;12.514;2022-08-16T10:55:23;7.22;;;2.22;;
9320;SDS011;4699;41.950;12.514;2022-08-16T10:57:53;6.35;;;2.47;;
9320;SDS011;4699;41.950;12.514;2022-08-16T11:00:21;8.35;;;2.70;;
9320;SDS011;4699;41.950;12.514;2022-08-16T11:02:48;9.23;;;2.75;;
9320;SDS011;4699;41.950;12.514;2022-08-16T11:05:19;7.50;;;2.13;;
9320;SDS011;4699;41.950;12.514;2022-08-16T11:07:49;9.63;;;2.58;;
9320;SDS011;4699;41.950;12.514;2022-08-16T11:10:17;8.05;;;2.53;;
9320;SDS011;4699;41.950;12.514;2022-08-16T11:12:45;9.15;;;2.55;;
9320;SDS011;4699;41.950;12.514;2022-08-16T11:15:12;8.60;;;2.40;;
9320;SDS011;4699;41.950;12.514;2022-08-16T11:17:39;10.55;;;2.47;;
9320;SDS011;4699;41.950;12.514;2022-08-16T11:20:07;6.88;;;2.58;;
9320;SDS011;4699;41.950;12.514;2022-08-16T11:22:37;7.85;;;2.42;;
9320;SDS011;4699;41.950;12.514;2022-08-16T11:25:08;7.53;;;2.63;;
9320;SDS011;4699;41.950;12.514;2022-08-16T11:27:35;13.35;;;2.85;;
9320;SDS011;4699;41.950;12.514;2022-08-16T11:30:03;5.45;;;2.58;;
9320;SDS011;4699;41.950;12.514;2022-08-16T11:32:31;8.85;;;2.80;;
9320;SDS011;4699;41.950;12.514;2022-08-16T11:35:00;11.55;;;2.88;;
9320;SDS011;4699;41.950;12.514;2022-08-16T11:37:27;9.00;;;2.92;;
9320;SDS011;4699;41.950;12.514;2022-08-16T11:39:57;11.82;;;2.92;;
9320;SDS011;4699;41.950;12.514;2022-08-16T11:42:25;10.88;;;3.05;;
9320;SDS011;4699;41.950;12.514;2022-08-16T11:44:53;12.05;;;3.15;;
9320;SDS011;4699;41.950;12.514;2022-08-16T11:47:20;6.28;;;2.83;;
9320;SDS011;4699;41.950;12.514;2022-08-16T11:49:48;8.77;;;2.40;;
9320;SDS011;4699;41.950;12.514;2022-08-16T11:52:16;5.32;;;2.28;;
9320;SDS011;4699;41.950;12.514;2022-08-16T11:54:45;6.78;;;2.40;;
9320;SDS011;4699;41.950;12.514;2022-08-16T11:57:12;9.73;;;3.08;;
9320;SDS011;4699;41.950;12.514;2022-08-16T11:59:41;11.77;;;2.58;;
9320;SDS011;4699;41.950;12.514;2022-08-16T12:02:08;10.52;;;2.97;;
9320;SDS011;4699;41.950;12.514;2022-08-16T12:04:35;8.00;;;2.60;;
9320;SDS011;4699;41.950;12.514;2022-08-16T12:07:03;10.77;;;3.13;;
9320;SDS011;4699;41.950;12.514;2022-08-16T12:09:32;10.18;;;3.03;;
9320;SDS011;4699;41.950;12.514;2022-08-16T12:11:59;11.00;;;3.28;;
9320;SDS011;4699;41.950;12.514;2022-08-16T12:14:26;13.95;;;3.20;;
9320;SDS011;4699;41.950;12.514;2022-08-16T12:16:55;13.02;;;3.45;;
9320;SDS011;4699;41.950;12.514;2022-08-16T12:19:23;13.90;;;2.90;;
9320;SDS011;4699;41.950;12.514;2022-08-16T12:21:50;9.68;;;3.22;;
9320;SDS011;4699;41.950;12.514;2022-08-16T12:24:18;9.73;;;2.95;;
9320;SDS011;4699;41.950;12.514;2022-08-16T12:26:45;12.40;;;3.30;;
9320;SDS011;4699;41.950;12.514;2022-08-16T12:29:12;9.73;;;3.25;;
9320;SDS011;4699;41.950;12.514;2022-08-16T12:31:39;16.45;;;4.10;;
9320;SDS011;4699;41.950;12.514;2022-08-16T12:34:08;15.00;;;3.90;;
9320;SDS011;4699;41.950;12.514;2022-08-16T12:36:35;15.13;;;3.53;;
9320;SDS011;4699;41.950;12.514;2022-08-16T12:39:03;12.13;;;3.40;;
9320;SDS011;4699;41.950;12.514;2022-08-16T12:41:31;12.50;;;3.22;;
9320;SDS011;4699;41.950;12.514;2022-08-16T12:43:58;10.02;;;3.63;;
9320;SDS011;4699;41.950;12.514;2022-08-16T12:46:27;14.73;;;3.72;;
9320;SDS011;4699;41.950;12.514;2022-08-16T12:48:55;15.80;;;3.88;;
9320;SDS011;4699;41.950;12.514;2022-08-16T12:51:27;17.73;;;3.88;;
9320;SDS011;4699;41.950;12.514;2022-08-16T12:53:56;16.88;;;4.32;;
9320;SDS011;4699;41.950;12.514;2022-08-16T12:56:25;12.48;;;3.67;;
9320;SDS011;4699;41.950;12.514;2022-08-16T12:58:53;19.00;;;4.18;;
9320;SDS011;4699;41.950;12.514;2022-08-16T13:01:21;15.80;;;4.38;;
9320;SDS011;4699;41.950;12.514;2022-08-16T13:03:50;15.82;;;4.25;;
9320;SDS011;4699;41.950;12.514;2022-08-16T13:06:19;14.88;;;4.25;;
9320;SDS011;4699;41.950;12.514;2022-08-16T13:08:48;17.27;;;4.13;;
9320;SDS011;4699;41.950;12.514;2022-08-16T13:11:15;16.33;;;3.72;;
9320;SDS011;4699;41.950;12.514;2022-08-16T13:13:45;10.10;;;3.72;;
9320;SDS011;4699;41.950;12.514;2022-08-16T13:16:12;19.38;;;4.45;;
9320;SDS011;4699;41.950;12.514;2022-08-16T13:18:40;14.10;;;4.40;;
9320;SDS011;4699;41.950;12.514;2022-08-16T13:21:07;15.85;;;4.40;;
9320;SDS011;4699;41.950;12.514;2022-08-16T13:23:35;14.13;;;4.43;;
9320;SDS011;4699;41.950;12.514;2022-08-16T13:26:04;20.30;;;4.35;;
9320;SDS011;4699;41.950;12.514;2022-08-16T13:28:31;14.77;;;3.88;;
9320;SDS011;4699;41.950;12.514;2022-08-16T13:30:58;17.67;;;4.40;;
9320;SDS011;4699;41.950;12.514;2022-08-16T13:33:28;16.67;;;4.72;;
9320;SDS011;4699;41.950;12.514;2022-08-16T13:35:56;15.23;;;3.90;;
9320;SDS011;4699;41.950;12.514;2022-08-16T13:38:24;17.85;;;4.30;;
9320;SDS011;4699;41.950;12.514;2022-08-16T13:40:52;14.25;;;4.25;;
9320;SDS011;4699;41.950;12.514;2022-08-16T13:43:21;15.02;;;4.28;;
9320;SDS011;4699;41.950;12.514;2022-08-16T13:45:49;15.50;;;3.35;;
9320;SDS011;4699;41.950;12.514;2022-08-16T13:48:16;19.40;;;3.97;;
9320;SDS011;4699;41.950;12.514;2022-08-16T13:50:43;15.30;;;3.60;;
9320;SDS011;4699;41.950;12.514;2022-08-16T13:53:11;11.85;;;3.92;;
9320;SDS011;4699;41.950;12.514;2022-08-16T13:55:38;10.73;;;3.45;;
9320;SDS011;4699;41.950;12.514;2022-08-16T13:58:07;12.75;;;4.00;;
9320;SDS011;4699;41.950;12.514;2022-08-16T14:00:37;10.75;;;3.78;;
9320;SDS011;4699;41.950;12.514;2022-08-16T14:03:04;15.05;;;4.68;;
9320;SDS011;4699;41.950;12.514;2022-08-16T14:05:31;13.20;;;3.45;;
9320;SDS011;4699;41.950;12.514;2022-08-16T14:07:59;17.77;;;4.47;;
9320;SDS011;4699;41.950;12.514;2022-08-16T14:10:26;9.00;;;3.35;;
9320;SDS011;4699;41.950;12.514;2022-08-16T14:12:54;11.80;;;3.90;;
9320;SDS011;4699;41.950;12.514;2022-08-16T14:15:21;11.63;;;3.40;;
9320;SDS011;4699;41.950;12.514;2022-08-16T14:17:50;15.13;;;4.22;;
9320;SDS011;4699;41.950;12.514;2022-08-16T14:20:18;11.40;;;3.90;;
9320;SDS011;4699;41.950;12.514;2022-08-16T14:22:45;13.30;;;4.03;;
9320;SDS011;4699;41.950;12.514;2022-08-16T14:25:13;13.48;;;3.92;;
9320;SDS011;4699;41.950;12.514;2022-08-16T14:27:41;10.30;;;4.15;;
9320;SDS011;4699;41.950;12.514;2022-08-16T14:30:09;14.02;;;4.03;;
9320;SDS011;4699;41.950;12.514;2022-08-16T14:32:37;14.98;;;3.80;;
9320;SDS011;4699;41.950;12.514;2022-08-16T14:35:08;16.08;;;4.43;;
9320;SDS011;4699;41.950;12.514;2022-08-16T14:37:36;14.77;;;4.38;;
9320;SDS011;4699;41.950;12.514;2022-08-16T14:40:04;14.63;;;3.88;;
9320;SDS011;4699;41.950;12.514;2022-08-16T14:42:32;15.30;;;4.20;;
9320;SDS011;4699;41.950;12.514;2022-08-16T14:44:59;10.57;;;3.95;;
9320;SDS011;4699;41.950;12.514;2022-08-16T14:47:26;11.65;;;4.13;;
9320;SDS011;4699;41.950;12.514;2022-08-16T14:49:54;18.33;;;4.70;;
9320;SDS011;4699;41.950;12.514;2022-08-16T14:52:22;13.70;;;4.57;;
9320;SDS011;4699;41.950;12.514;2022-08-16T14:54:50;13.80;;;4.28;;
9320;SDS011;4699;41.950;12.514;2022-08-16T14:57:19;18.42;;;4.50;;
9320;SDS011;4699;41.950;12.514;2022-08-16T14:59:46;18.42;;;4.03;;
9320;SDS011;4699;41.950;12.514;2022-08-16T15:02:15;16.63;;;4.78;;
9320;SDS011;4699;41.950;12.514;2022-08-16T15:04:43;12.65;;;4.13;;
9320;SDS011;4699;41.950;12.514;2022-08-16T15:07:10;11.32;;;4.43;;
9320;SDS011;4699;41.950;12.514;2022-08-16T15:09:40;17.77;;;3.95;;
9320;SDS011;4699;41.950;12.514;2022-08-16T15:12:08;16.50;;;4.30;;
9320;SDS011;4699;41.950;12.514;2022-08-16T15:14:37;11.13;;;4.00;;
9320;SDS011;4699;41.950;12.514;2022-08-16T15:17:05;16.75;;;5.22;;
9320;SDS011;4699;41.950;12.514;2022-08-16T15:19:32;12.75;;;4.13;;
9320;SDS011;4699;41.950;12.514;2022-08-16T15:21:59;14.05;;;3.83;;
9320;SDS011;4699;41.950;12.514;2022-08-16T15:24:27;14.90;;;3.90;;
9320;SDS011;4699;41.950;12.514;2022-08-16T15:26:56;13.50;;;4.07;;
9320;SDS011;4699;41.950;12.514;2022-08-16T15:29:23;15.02;;;4.30;;
9320;SDS011;4699;41.950;12.514;2022-08-16T15:31:51;11.45;;;3.78;;
9320;SDS011;4699;41.950;12.514;2022-08-16T15:34:18;17.10;;;4.15;;
9320;SDS011;4699;41.950;12.514;2022-08-16T15:36:45;12.40;;;3.85;;
9320;SDS011;4699;41.950;12.514;2022-08-16T15:39:12;13.68;;;3.80;;
9320;SDS011;4699;41.950;12.514;2022-08-16T15:42:02;12.82;;;3.45;;
9320;SDS011;4699;41.950;12.514;2022-08-16T15:44:30;18.13;;;4.43;;
9320;SDS011;4699;41.950;12.514;2022-08-16T15:47:00;16.90;;;3.60;;
9320;SDS011;4699;41.950;12.514;2022-08-16T15:49:29;14.35;;;3.95;;
9320;SDS011;4699;41.950;12.514;2022-08-16T15:51:57;16.63;;;4.57;;
9320;SDS011;4699;41.950;12.514;2022-08-16T15:54:24;14.63;;;4.40;;
9320;SDS011;4699;41.950;12.514;2022-08-16T15:56:51;14.35;;;4.30;;
9320;SDS011;4699;41.950;12.514;2022-08-16T15:59:21;14.75;;;3.95;;
9320;SDS011;4699;41.950;12.514;2022-08-16T16:01:48;13.20;;;3.90;;
9320;SDS011;4699;41.950;12.514;2022-08-16T16:04:16;10.95;;;3.95;;
9320;SDS011;4699;41.950;12.514;2022-08-16T16:06:43;11.13;;;3.92;;
9320;SDS011;4699;41.950;12.514;2022-08-16T16:09:13;15.68;;;3.80;;
9320;SDS011;4699;41.950;12.514;2022-08-16T16:11:41;15.25;;;4.15;;
9320;SDS011;4699;41.950;12.514;2022-08-16T16:14:08;12.07;;;3.83;;
9320;SDS011;4699;41.950;12.514;2022-08-16T16:16:37;15.48;;;4.10;;
9320;SDS011;4699;41.950;12.514;2022-08-16T16:19:04;13.80;;;4.47;;
9320;SDS011;4699;41.950;12.514;2022-08-16T16:21:32;11.95;;;3.85;;
9320;SDS011;4699;41.950;12.514;2022-08-16T16:23:59;14.52;;;4.25;;
9320;SDS011;4699;41.950;12.514;2022-08-16T16:26:26;15.68;;;3.70;;
9320;SDS011;4699;41.950;12.514;2022-08-16T16:28:54;15.73;;;4.10;;
9320;SDS011;4699;41.950;12.514;2022-08-16T16:31:21;12.80;;;4.00;;
9320;SDS011;4699;41.950;12.514;2022-08-16T16:33:52;12.90;;;4.35;;
9320;SDS011;4699;41.950;12.514;2022-08-16T16:36:22;12.07;;;4.43;;
9320;SDS011;4699;41.950;12.514;2022-08-16T16:38:49;14.73;;;4.22;;
9320;SDS011;4699;41.950;12.514;2022-08-16T16:41:17;15.85;;;4.20;;
9320;SDS011;4699;41.950;12.514;2022-08-16T16:43:47;15.48;;;4.10;;
9320;SDS011;4699;41.950;12.514;2022-08-16T16:46:15;16.77;;;4.50;;
9320;SDS011;4699;41.950;12.514;2022-08-16T16:48:43;10.02;;;3.67;;
9320;SDS011;4699;41.950;12.514;2022-08-16T16:51:12;10.45;;;4.07;;
9320;SDS011;4699;41.950;12.514;2022-08-16T16:53:40;18.77;;;4.68;;
9320;SDS011;4699;41.950;12.514;2022-08-16T16:56:10;16.58;;;4.60;;
9320;SDS011;4699;41.950;12.514;2022-08-16T16:58:38;16.55;;;4.40;;
9320;SDS011;4699;41.950;12.514;2022-08-16T17:01:26;23.10;;;5.38;;
9320;SDS011;4699;41.950;12.514;2022-08-16T17:03:56;12.80;;;4.53;;
9320;SDS011;4699;41.950;12.514;2022-08-16T17:06:25;16.88;;;4.72;;
9320;SDS011;4699;41.950;12.514;2022-08-16T17:08:52;16.10;;;4.22;;
9320;SDS011;4699;41.950;12.514;2022-08-16T17:11:19;22.40;;;4.60;;
9320;SDS011;4699;41.950;12.514;2022-08-16T17:13:48;17.05;;;5.07;;
9320;SDS011;4699;41.950;12.514;2022-08-16T17:16:16;12.93;;;4.43;;
9320;SDS011;4699;41.950;12.514;2022-08-16T17:18:43;11.90;;;4.70;;
9320;SDS011;4699;41.950;12.514;2022-08-16T17:21:10;16.33;;;4.32;;
9320;SDS011;4699;41.950;12.514;2022-08-16T17:23:39;16.23;;;4.68;;
9320;SDS011;4699;41.950;12.514;2022-08-16T17:26:06;14.95;;;4.63;;
9320;SDS011;4699;41.950;12.514;2022-08-16T17:28:33;20.23;;;5.22;;
9320;SDS011;4699;41.950;12.514;2022-08-16T17:31:01;15.82;;;5.03;;
9320;SDS011;4699;41.950;12.514;2022-08-16T17:33:28;15.15;;;4.65;;
9320;SDS011;4699;41.950;12.514;2022-08-16T17:35:55;14.75;;;4.68;;
9320;SDS011;4699;41.950;12.514;2022-08-16T17:38:23;14.80;;;4.25;;
9320;SDS011;4699;41.950;12.514;2022-08-16T17:40:54;14.82;;;4.65;;
9320;SDS011;4699;41.950;12.514;2022-08-16T17:43:24;17.67;;;4.93;;
9320;SDS011;4699;41.950;12.514;2022-08-16T17:45:52;17.83;;;4.80;;
9320;SDS011;4699;41.950;12.514;2022-08-16T17:48:19;13.98;;;4.47;;
9320;SDS011;4699;41.950;12.514;2022-08-16T17:50:47;15.43;;;4.40;;
9320;SDS011;4699;41.950;12.514;2022-08-16T17:53:14;20.63;;;5.82;;
9320;SDS011;4699;41.950;12.514;2022-08-16T17:55:43;20.33;;;4.72;;
9320;SDS011;4699;41.950;12.514;2022-08-16T17:58:13;20.20;;;4.97;;
9320;SDS011;4699;41.950;12.514;2022-08-16T18:00:41;20.48;;;5.15;;
9320;SDS011;4699;41.950;12.514;2022-08-16T18:03:11;14.38;;;5.10;;
9320;SDS011;4699;41.950;12.514;2022-08-16T18:05:39;16.08;;;5.30;;
9320;SDS011;4699;41.950;12.514;2022-08-16T18:08:09;17.33;;;5.57;;
9320;SDS011;4699;41.950;12.514;2022-08-16T18:10:36;20.98;;;5.15;;
9320;SDS011;4699;41.950;12.514;2022-08-16T18:13:03;15.93;;;4.28;;
9320;SDS011;4699;41.950;12.514;2022-08-16T18:15:32;16.38;;;4.43;;
9320;SDS011;4699;41.950;12.514;2022-08-16T18:18:00;15.65;;;5.05;;
9320;SDS011;4699;41.950;12.514;2022-08-16T18:20:27;18.30;;;5.60;;
9320;SDS011;4699;41.950;12.514;2022-08-16T18:23:13;12.73;;;4.72;;
9320;SDS011;4699;41.950;12.514;2022-08-16T18:25:41;15.98;;;5.13;;
9320;SDS011;4699;41.950;12.514;2022-08-16T18:28:09;20.73;;;6.18;;
9320;SDS011;4699;41.950;12.514;2022-08-16T18:30:38;16.75;;;5.00;;
9320;SDS011;4699;41.950;12.514;2022-08-16T18:33:06;15.88;;;5.25;;
9320;SDS011;4699;41.950;12.514;2022-08-16T18:35:33;23.45;;;5.57;;
9320;SDS011;4699;41.950;12.514;2022-08-16T18:38:01;13.40;;;5.75;;
9320;SDS011;4699;41.950;12.514;2022-08-16T18:40:29;15.73;;;5.45;;
9320;SDS011;4699;41.950;12.514;2022-08-16T18:42:57;16.17;;;6.15;;
9320;SDS011;4699;41.950;12.514;2022-08-16T18:45:25;15.38;;;5.55;;
9320;SDS011;4699;41.950;12.514;2022-08-16T18:47:54;24.55;;;6.30;;
9320;SDS011;4699;41.950;12.514;2022-08-16T18:50:22;12.70;;;4.85;;
9320;SDS011;4699;41.950;12.514;2022-08-16T18:52:50;19.02;;;5.40;;
9320;SDS011;4699;41.950;12.514;2022-08-16T18:55:18;16.58;;;5.32;;
9320;SDS011;4699;41.950;12.514;2022-08-16T18:57:46;14.10;;;5.45;;
9320;SDS011;4699;41.950;12.514;2022-08-16T19:00:15;20.42;;;5.72;;
9320;SDS011;4699;41.950;12.514;2022-08-16T19:02:44;26.67;;;5.80;;
9320;SDS011;4699;41.950;12.514;2022-08-16T19:05:14;20.35;;;5.63;;
9320;SDS011;4699;41.950;12.514;2022-08-16T19:07:41;21.63;;;6.85;;
9320;SDS011;4699;41.950;12.514;2022-08-16T19:10:08;22.00;;;5.80;;
9320;SDS011;4699;41.950;12.514;2022-08-16T19:12:37;15.27;;;4.88;;
9320;SDS011;4699;41.950;12.514;2022-08-16T19:15:06;18.00;;;5.60;;
9320;SDS011;4699;41.950;12.514;2022-08-16T19:17:34;19.23;;;5.97;;
9320;SDS011;4699;41.950;12.514;2022-08-16T19:20:02;16.65;;;5.82;;
9320;SDS011;4699;41.950;12.514;2022-08-16T19:22:32;14.13;;;5.95;;
9320;SDS011;4699;41.950;12.514;2022-08-16T19:24:59;18.70;;;5.75;;
9320;SDS011;4699;41.950;12.514;2022-08-16T19:27:27;18.27;;;5.80;;
9320;SDS011;4699;41.950;12.514;2022-08-16T19:29:54;20.00;;;5.40;;
9320;SDS011;4699;41.950;12.514;2022-08-16T19:32:23;20.40;;;5.65;;
9320;SDS011;4699;41.950;12.514;2022-08-16T19:34:51;16.75;;;5.95;;
9320;SDS011;4699;41.950;12.514;2022-08-16T19:37:19;14.38;;;5.82;;
9320;SDS011;4699;41.950;12.514;2022-08-16T19:39:48;21.83;;;6.30;;
9320;SDS011;4699;41.950;12.514;2022-08-16T19:42:16;21.38;;;6.25;;
9320;SDS011;4699;41.950;12.514;2022-08-16T19:44:45;21.55;;;6.35;;
9320;SDS011;4699;41.950;12.514;2022-08-16T19:47:13;26.02;;;6.75;;
9320;SDS011;4699;41.950;12.514;2022-08-16T19:49:41;20.35;;;6.75;;
9320;SDS011;4699;41.950;12.514;2022-08-16T19:52:10;21.65;;;6.70;;
9320;SDS011;4699;41.950;12.514;2022-08-16T19:54:38;21.38;;;5.90;;
9320;SDS011;4699;41.950;12.514;2022-08-16T19:57:06;22.45;;;6.10;;
9320;SDS011;4699;41.950;12.514;2022-08-16T19:59:34;22.67;;;6.45;;
9320;SDS011;4699;41.950;12.514;2022-08-16T20:02:02;20.08;;;5.40;;
9320;SDS011;4699;41.950;12.514;2022-08-16T20:04:30;24.33;;;6.53;;
9320;SDS011;4699;41.950;12.514;2022-08-16T20:06:58;22.55;;;6.20;;
9320;SDS011;4699;41.950;12.514;2022-08-16T20:09:26;26.55;;;6.63;;
9320;SDS011;4699;41.950;12.514;2022-08-16T20:11:54;21.80;;;6.15;;
9320;SDS011;4699;41.950;12.514;2022-08-16T20:14:24;24.30;;;6.45;;
9320;SDS011;4699;41.950;12.514;2022-08-16T20:16:53;18.50;;;5.57;;
9320;SDS011;4699;41.950;12.514;2022-08-16T20:19:21;21.92;;;6.68;;
9320;SDS011;4699;41.950;12.514;2022-08-16T20:21:48;22.90;;;5.88;;
9320;SDS011;4699;41.950;12.514;2022-08-16T20:24:15;20.02;;;5.93;;
9320;SDS011;4699;41.950;12.514;2022-08-16T20:26:43;27.02;;;6.68;;
9320;SDS011;4699;41.950;12.514;2022-08-16T20:29:10;28.55;;;6.85;;
9320;SDS011;4699;41.950;12.514;2022-08-16T20:31:39;19.25;;;5.82;;
9320;SDS011;4699;41.950;12.514;2022-08-16T20:34:06;28.77;;;7.15;;
9320;SDS011;4699;41.950;12.514;2022-08-16T20:36:34;27.67;;;6.80;;
9320;SDS011;4699;41.950;12.514;2022-08-16T20:39:01;19.42;;;5.95;;
9320;SDS011;4699;41.950;12.514;2022-08-16T20:41:29;16.85;;;5.40;;
9320;SDS011;4699;41.950;12.514;2022-08-16T20:43:56;23.58;;;6.70;;
9320;SDS011;4699;41.950;12.514;2022-08-16T20:46:24;22.08;;;6.82;;
9320;SDS011;4699;41.950;12.514;2022-08-16T20:48:53;20.85;;;5.95;;
9320;SDS011;4699;41.950;12.514;2022-08-16T20:51:21;19.23;;;5.85;;
9320;SDS011;4699;41.950;12.514;2022-08-16T20:53:48;21.40;;;6.82;;
9320;SDS011;4699;41.950;12.514;2022-08-16T20:56:15;25.42;;;6.60;;
9320;SDS011;4699;41.950;12.514;2022-08-16T20:58:42;19.70;;;5.90;;
9320;SDS011;4699;41.950;12.514;2022-08-16T21:01:10;18.80;;;6.25;;
9320;SDS011;4699;41.950;12.514;2022-08-16T21:03:37;27.48;;;6.75;;
9320;SDS011;4699;41.950;12.514;2022-08-16T21:06:07;23.60;;;7.07;;
9320;SDS011;4699;41.950;12.514;2022-08-16T21:08:34;17.75;;;6.05;;
9320;SDS011;4699;41.950;12.514;2022-08-16T21:11:03;18.40;;;6.22;;
9320;SDS011;4699;41.950;12.514;2022-08-16T21:13:30;17.00;;;6.05;;
9320;SDS011;4699;41.950;12.514;2022-08-16T21:15:59;22.50;;;7.38;;
9320;SDS011;4699;41.950;12.514;2022-08-16T21:18:28;20.05;;;5.63;;
9320;SDS011;4699;41.950;12.514;2022-08-16T21:20:56;23.35;;;7.00;;
9320;SDS011;4699;41.950;12.514;2022-08-16T21:23:25;18.13;;;6.18;;
9320;SDS011;4699;41.950;12.514;2022-08-16T21:25:52;22.25;;;5.97;;
9320;SDS011;4699;41.950;12.514;2022-08-16T21:28:20;22.90;;;5.93;;
9320;SDS011;4699;41.950;12.514;2022-08-16T21:30:47;13.85;;;5.75;;
9320;SDS011;4699;41.950;12.514;2022-08-16T21:33:16;20.48;;;6.32;;
9320;SDS011;4699;41.950;12.514;2022-08-16T21:35:44;19.20;;;6.18;;
9320;SDS011;4699;41.950;12.514;2022-08-16T21:38:12;22.80;;;7.07;;
9320;SDS011;4699;41.950;12.514;2022-08-16T21:40:41;16.40;;;6.28;;
9320;SDS011;4699;41.950;12.514;2022-08-16T21:43:10;21.83;;;7.22;;
9320;SDS011;4699;41.950;12.514;2022-08-16T21:45:38;22.27;;;5.90;;
9320;SDS011;4699;41.950;12.514;2022-08-16T21:48:06;21.17;;;6.43;;
9320;SDS011;4699;41.950;12.514;2022-08-16T21:50:34;19.48;;;6.25;;
9320;SDS011;4699;41.950;12.514;2022-08-16T21:53:05;22.63;;;6.43;;
9320;SDS011;4699;41.950;12.514;2022-08-16T21:55:33;20.88;;;6.43;;
9320;SDS011;4699;41.950;12.514;2022-08-16T21:58:02;16.15;;;5.95;;
9320;SDS011;4699;41.950;12.514;2022-08-16T22:00:29;14.98;;;5.95;;
9320;SDS011;4699;41.950;12.514;2022-08-16T22:03:00;19.95;;;6.72;;
9320;SDS011;4699;41.950;12.514;2022-08-16T22:05:28;21.52;;;6.25;;
9320;SDS011;4699;41.950;12.514;2022-08-16T22:07:56;24.45;;;6.13;;
9320;SDS011;4699;41.950;12.514;2022-08-16T22:10:23;22.58;;;6.07;;
9320;SDS011;4699;41.950;12.514;2022-08-16T22:12:51;24.95;;;7.10;;
9320;SDS011;4699;41.950;12.514;2022-08-16T22:15:20;18.38;;;5.40;;
9320;SDS011;4699;41.950;12.514;2022-08-16T22:17:49;22.15;;;6.55;;
9320;SDS011;4699;41.950;12.514;2022-08-16T22:20:17;24.02;;;5.97;;
9320;SDS011;4699;41.950;12.514;2022-08-16T22:22:45;19.20;;;6.40;;
9320;SDS011;4699;41.950;12.514;2022-08-16T22:25:12;18.23;;;5.63;;
9320;SDS011;4699;41.950;12.514;2022-08-16T22:27:40;22.27;;;7.18;;
9320;SDS011;4699;41.950;12.514;2022-08-16T22:30:11;19.33;;;6.18;;
9320;SDS011;4699;41.950;12.514;2022-08-16T22:32:41;27.60;;;6.88;;
9320;SDS011;4699;41.950;12.514;2022-08-16T22:35:09;20.63;;;6.97;;
9320;SDS011;4699;41.950;12.514;2022-08-16T22:37:37;20.65;;;6.32;;
9320;SDS011;4699;41.950;12.514;2022-08-16T22:40:06;28.35;;;7.20;;
9320;SDS011;4699;41.950;12.514;2022-08-16T22:42:34;19.33;;;6.65;;
9320;SDS011;4699;41.950;12.514;2022-08-16T22:45:11;27.75;;;7.35;;
9320;SDS011;4699;41.950;12.514;2022-08-16T22:47:38;18.77;;;6.47;;
9320;SDS011;4699;41.950;12.514;2022-08-16T22:50:08;17.38;;;6.03;;
9320;SDS011;4699;41.950;12.514;2022-08-16T22:52:42;19.20;;;6.35;;
9320;SDS011;4699;41.950;12.514;2022-08-16T22:55:09;20.60;;;6.07;;